createdAt,value
2022-09-23T00:00:31.930Z,3.90
2022-09-23T00:03:22.528Z,5.20
2022-09-23T00:06:02.135Z,4.40
2022-09-23T00:08:33.239Z,5.10
2022-09-23T00:11:09.020Z,3.30
2022-09-23T00:13:42.535Z,3.40
2022-09-23T00:16:18.293Z,3.00
2022-09-23T00:18:50.657Z,4.40
2022-09-23T00:21:22.871Z,3.90
2022-09-23T00:23:54.411Z,3.50
2022-09-23T00:26:25.963Z,3.80
2022-09-23T00:28:56.966Z,3.20
2022-09-23T00:31:29.876Z,3.70
2022-09-23T00:34:02.575Z,3.10
2022-09-23T00:36:34.523Z,3.10
2022-09-23T00:39:06.161Z,3.00
2022-09-23T00:41:37.694Z,2.70
2022-09-23T00:46:51.913Z,3.20
2022-09-23T00:49:29.989Z,3.10
2022-09-23T00:52:08.026Z,3.30
2022-09-23T00:54:39.167Z,3.50
2022-09-23T00:59:40.195Z,3.80
2022-09-23T01:02:13.190Z,3.50
2022-09-23T01:04:44.417Z,3.70
2022-09-23T01:07:15.193Z,3.20
2022-09-23T01:09:47.088Z,3.00
2022-09-23T01:12:35.885Z,3.20
2022-09-23T01:15:14.898Z,3.70
2022-09-23T01:17:54.987Z,3.00
2022-09-23T01:20:43.571Z,3.20
2022-09-23T01:23:37.331Z,2.90
2022-09-23T01:26:29.639Z,2.30
2022-09-23T01:29:29.253Z,2.10
2022-09-23T01:32:07.182Z,2.30
2022-09-23T01:34:47.123Z,2.60
2022-09-23T01:37:26.036Z,2.50
2022-09-23T01:40:05.401Z,2.40
2022-09-23T01:42:43.201Z,2.30
2022-09-23T01:47:53.664Z,1.90
2022-09-23T01:50:46.267Z,2.80
2022-09-23T01:53:23.289Z,2.20
2022-09-23T01:55:58.337Z,2.50
2022-09-23T01:58:34.232Z,3.10
2022-09-23T02:01:08.362Z,2.40
2022-09-23T02:03:46.393Z,2.00
2022-09-23T02:06:22.184Z,2.50
2022-09-23T02:09:00.366Z,2.40
2022-09-23T02:11:36.460Z,2.30
2022-09-23T02:14:15.524Z,2.00
2022-09-23T02:16:49.277Z,2.30
2022-09-23T02:19:27.130Z,2.30
2022-09-23T02:24:35.684Z,2.20
2022-09-23T02:27:25.873Z,3.60
2022-09-23T02:30:04.579Z,1.60
2022-09-23T02:32:42.238Z,1.90
2022-09-23T02:35:22.787Z,2.10
2022-09-23T02:38:21.732Z,2.30
2022-09-23T02:41:12.494Z,2.00
2022-09-23T02:43:52.481Z,2.20
2022-09-23T02:46:24.831Z,1.80
2022-09-23T02:49:01.304Z,2.30
2022-09-23T02:51:37.923Z,1.80
2022-09-23T02:54:12.527Z,2.20
2022-09-23T02:56:44.207Z,1.80
2022-09-23T02:59:22.253Z,2.40
2022-09-23T03:02:20.873Z,2.30
2022-09-23T03:05:04.053Z,1.60
2022-09-23T03:08:12.883Z,1.90
2022-09-23T03:11:08.699Z,1.80
2022-09-23T03:14:17.454Z,1.90
2022-09-23T03:17:14.603Z,2.20
2022-09-23T03:19:51.142Z,1.70
2022-09-23T03:22:28.988Z,1.70
2022-09-23T03:27:42.543Z,2.60
2022-09-23T03:30:15.439Z,2.00
2022-09-23T03:32:51.354Z,2.40
2022-09-23T03:35:25.157Z,2.50
2022-09-23T03:38:02.759Z,1.30
2022-09-23T03:40:43.599Z,1.70
2022-09-23T03:43:18.048Z,1.50
2022-09-23T03:45:49.049Z,1.80
2022-09-23T03:48:21.543Z,2.80
2022-09-23T03:50:52.742Z,2.30
2022-09-23T03:53:23.630Z,1.90
2022-09-23T03:55:54.470Z,1.70
2022-09-23T03:58:25.174Z,2.30
2022-09-23T04:00:57.740Z,2.30
2022-09-23T04:03:29.438Z,1.90
2022-09-23T04:06:01.008Z,2.50
2022-09-23T04:08:31.916Z,2.00
2022-09-23T04:11:04.757Z,2.30
2022-09-23T04:13:35.738Z,2.30
2022-09-23T04:16:07.059Z,2.10
2022-09-23T04:21:08.045Z,2.40
2022-09-23T04:23:38.945Z,2.00
2022-09-23T04:26:10.564Z,2.00
2022-09-23T04:28:42.011Z,2.00
2022-09-23T04:33:42.364Z,2.30
2022-09-23T04:36:13.427Z,2.30
2022-09-23T04:38:46.631Z,3.00
2022-09-23T04:41:17.973Z,3.30
2022-09-23T04:46:18.553Z,3.40
2022-09-23T04:48:49.742Z,2.20
2022-09-23T04:51:22.216Z,1.90
2022-09-23T04:53:55.039Z,2.00
2022-09-23T04:56:27.559Z,2.00
2022-09-23T04:58:58.983Z,2.30
2022-09-23T05:04:03.370Z,1.80
2022-09-23T05:06:35.710Z,2.30
2022-09-23T05:09:08.751Z,2.50
2022-09-23T05:11:40.460Z,2.90
2022-09-23T05:14:11.816Z,2.90
2022-09-23T05:16:43.065Z,2.60
2022-09-23T05:19:13.954Z,3.00
2022-09-23T05:21:45.147Z,2.90
2022-09-23T05:24:17.244Z,2.70
2022-09-23T05:26:48.187Z,3.90
2022-09-23T05:29:18.907Z,4.00
2022-09-23T05:31:49.865Z,3.10
2022-09-23T05:34:20.824Z,2.50
2022-09-23T05:36:51.941Z,3.10
2022-09-23T05:39:25.958Z,2.70
2022-09-23T05:41:57.040Z,2.90
2022-09-23T05:44:28.329Z,3.10
2022-09-23T05:46:59.380Z,3.60
2022-09-23T05:49:48.653Z,3.90
2022-09-23T05:52:21.915Z,3.90
2022-09-23T05:54:52.874Z,4.60
2022-09-23T05:57:23.705Z,6.70
2022-09-23T05:59:54.742Z,7.80
2022-09-23T06:02:25.899Z,7.50
2022-09-23T06:04:57.141Z,9.60
2022-09-23T06:07:28.443Z,8.90
2022-09-23T06:09:59.576Z,8.80
2022-09-23T06:12:30.360Z,8.80
2022-09-23T06:15:01.222Z,6.90
2022-09-23T06:17:32.181Z,6.20
2022-09-23T06:20:03.688Z,7.00
2022-09-23T06:22:38.389Z,6.90
2022-09-23T06:25:12.302Z,5.40
2022-09-23T06:27:43.178Z,5.20
2022-09-23T06:30:17.115Z,4.30
2022-09-23T06:32:53.096Z,3.30
2022-09-23T06:35:27.756Z,2.70
2022-09-23T06:37:58.867Z,2.60
2022-09-23T06:40:30.029Z,2.20
2022-09-23T06:45:30.676Z,2.10
2022-09-23T06:48:08.340Z,2.30
2022-09-23T06:50:39.349Z,2.00
2022-09-23T06:53:10.181Z,2.20
2022-09-23T06:55:41.735Z,2.30
2022-09-23T06:58:13.225Z,2.30
2022-09-23T07:00:44.079Z,2.30
2022-09-23T07:05:46.007Z,2.30
2022-09-23T07:08:17.564Z,2.80
2022-09-23T07:10:54.307Z,2.30
2022-09-23T07:13:26.268Z,2.30
2022-09-23T07:16:01.221Z,2.60
2022-09-23T07:18:36.817Z,3.80
2022-09-23T07:21:15.343Z,4.30
2022-09-23T07:23:48.128Z,4.00
2022-09-23T07:26:22.907Z,4.60
2022-09-23T07:28:57.343Z,5.90
2022-09-23T07:31:38.248Z,4.30
2022-09-23T07:34:11.833Z,3.30
2022-09-23T07:36:43.513Z,2.60
2022-09-23T07:39:15.731Z,1.90
2022-09-23T07:41:46.732Z,2.00
2022-09-23T07:44:21.931Z,1.70
2022-09-23T07:46:52.944Z,2.10
2022-09-23T07:49:26.495Z,2.50
2022-09-23T07:51:57.323Z,2.10
2022-09-23T07:54:29.820Z,1.70
2022-09-23T07:57:01.258Z,1.70
2022-09-23T07:59:32.358Z,1.50
2022-09-23T08:02:03.252Z,1.70
2022-09-23T08:04:34.958Z,1.80
2022-09-23T08:07:08.148Z,1.60
2022-09-23T08:09:42.058Z,1.60
2022-09-23T08:12:19.748Z,1.80
2022-09-23T08:14:50.553Z,1.30
2022-09-23T08:17:21.833Z,1.70
2022-09-23T08:19:54.121Z,1.40
2022-09-23T08:22:25.227Z,1.10
2022-09-23T08:24:56.891Z,0.90
2022-09-23T08:27:29.527Z,0.60
2022-09-23T08:30:00.909Z,1.00
2022-09-23T08:32:32.287Z,0.90
2022-09-23T08:35:03.153Z,0.70
2022-09-23T08:37:33.934Z,0.70
2022-09-23T08:42:39.117Z,1.00
2022-09-23T08:45:18.955Z,1.10
2022-09-23T08:47:57.839Z,0.70
2022-09-23T08:50:34.874Z,0.70
2022-09-23T08:53:14.192Z,0.80
2022-09-23T08:55:49.795Z,0.90
2022-09-23T08:58:38.782Z,0.80
2022-09-23T09:01:20.437Z,0.60
2022-09-23T09:03:55.207Z,0.70
2022-09-23T09:06:45.582Z,0.90
2022-09-23T09:09:28.583Z,0.50
2022-09-23T09:12:07.594Z,0.90
2022-09-23T09:14:44.935Z,0.70
2022-09-23T09:17:24.824Z,0.60
2022-09-23T09:20:04.983Z,1.00
2022-09-23T09:22:54.046Z,0.80
2022-09-23T09:25:39.568Z,0.80
2022-09-23T09:28:19.035Z,0.80
2022-09-23T09:30:54.714Z,0.90
2022-09-23T09:33:33.263Z,1.10
2022-09-23T09:36:16.282Z,1.20
2022-09-23T09:38:47.776Z,1.00
2022-09-23T09:41:21.534Z,1.00
2022-09-23T09:43:58.906Z,0.80
2022-09-23T09:49:26.038Z,0.90
2022-09-23T09:52:15.978Z,0.80
2022-09-23T09:54:49.353Z,1.00
2022-09-23T09:57:35.136Z,0.90
2022-09-23T10:00:35.832Z,0.80
2022-09-23T10:03:24.338Z,0.80
2022-09-23T10:05:57.800Z,0.70
2022-09-23T10:08:35.165Z,1.20
2022-09-23T10:11:15.221Z,0.80
2022-09-23T10:14:05.469Z,0.90
2022-09-23T10:16:37.329Z,0.90
2022-09-23T10:19:16.913Z,0.80
2022-09-23T10:21:57.033Z,0.90
2022-09-23T10:24:31.099Z,1.10
2022-09-23T10:27:07.707Z,0.70
2022-09-23T10:29:49.687Z,0.80
2022-09-23T10:32:30.434Z,0.90
2022-09-23T10:35:13.430Z,1.10
2022-09-23T10:37:46.802Z,0.80
2022-09-23T10:40:37.830Z,0.70
2022-09-23T10:43:37.840Z,1.00
2022-09-23T10:46:32.785Z,0.90
2022-09-23T10:49:23.346Z,1.10
2022-09-23T10:52:04.214Z,0.90
2022-09-23T10:54:46.537Z,1.10
2022-09-23T10:57:40.617Z,0.90
2022-09-23T11:00:28.584Z,0.70
2022-09-23T11:03:21.992Z,0.80
2022-09-23T11:06:02.821Z,0.80
2022-09-23T11:08:57.417Z,1.00
2022-09-23T11:11:39.459Z,0.70
2022-09-23T11:14:21.621Z,0.70
2022-09-23T11:17:13.658Z,1.00
2022-09-23T11:20:25.439Z,0.90
2022-09-23T11:23:18.925Z,0.80
2022-09-23T11:25:57.474Z,1.00
2022-09-23T11:28:46.765Z,1.00
2022-09-23T11:31:32.501Z,0.80
2022-09-23T11:34:22.533Z,1.20
2022-09-23T11:36:58.764Z,1.10
2022-09-23T11:39:34.288Z,1.00
2022-09-23T11:42:13.023Z,1.10
2022-09-23T11:44:50.129Z,1.00
2022-09-23T11:50:00.176Z,1.30
2022-09-23T11:52:36.303Z,1.10
2022-09-23T11:55:22.055Z,1.20
2022-09-23T11:57:55.714Z,1.00
2022-09-23T12:00:32.637Z,0.70
2022-09-23T12:05:41.101Z,1.10
2022-09-23T12:08:23.381Z,1.10
2022-09-23T12:10:59.713Z,1.10
2022-09-23T12:13:42.522Z,1.00
2022-09-23T12:16:37.936Z,0.80
2022-09-23T12:19:19.144Z,1.50
2022-09-23T12:22:09.063Z,1.00
2022-09-23T12:24:56.031Z,1.30
2022-09-23T12:27:36.293Z,1.10
2022-09-23T12:30:14.928Z,1.00
2022-09-23T12:32:47.009Z,1.10
2022-09-23T12:35:25.634Z,1.10
2022-09-23T12:37:56.838Z,1.00
2022-09-23T12:40:34.292Z,0.70
2022-09-23T12:43:05.447Z,0.70
2022-09-23T12:45:40.289Z,0.70
2022-09-23T12:48:40.879Z,0.90
2022-09-23T12:51:21.302Z,0.80
2022-09-23T12:54:16.353Z,0.70
2022-09-23T12:57:05.228Z,0.80
2022-09-23T12:59:56.690Z,1.10
2022-09-23T13:02:35.683Z,1.10
2022-09-23T13:05:38.241Z,1.10
2022-09-23T13:08:14.593Z,0.90
2022-09-23T13:10:50.984Z,0.90
2022-09-23T13:13:29.718Z,1.50
2022-09-23T13:16:13.956Z,1.10
2022-09-23T13:19:01.905Z,1.00
2022-09-23T13:22:13.700Z,1.20
2022-09-23T13:24:54.383Z,0.90
2022-09-23T13:27:31.353Z,1.00
2022-09-23T13:30:06.095Z,1.00
2022-09-23T13:32:40.239Z,0.80
2022-09-23T13:35:22.795Z,0.80
2022-09-23T13:37:55.353Z,1.00
2022-09-23T13:40:28.606Z,1.00
2022-09-23T13:43:03.173Z,0.90
2022-09-23T13:45:38.551Z,1.30
2022-09-23T13:48:13.856Z,1.00
2022-09-23T13:50:50.920Z,1.40
2022-09-23T13:53:27.235Z,1.10
2022-09-23T13:56:06.404Z,0.90
2022-09-23T13:58:38.458Z,1.10
2022-09-23T14:01:22.104Z,1.60
2022-09-23T14:03:53.337Z,1.10
2022-09-23T14:06:24.056Z,1.40
2022-09-23T14:08:55.351Z,1.10
2022-09-23T14:11:33.270Z,1.50
2022-09-23T14:14:07.235Z,1.20
2022-09-23T14:16:41.698Z,1.00
2022-09-23T14:19:19.585Z,1.60
2022-09-23T14:21:53.429Z,1.20
2022-09-23T14:24:27.217Z,1.10
2022-09-23T14:27:01.910Z,0.90
2022-09-23T14:29:35.526Z,0.80
2022-09-23T14:32:08.381Z,0.90
2022-09-23T14:34:48.905Z,0.80
2022-09-23T14:37:44.787Z,0.80
2022-09-23T14:40:19.642Z,1.00
2022-09-23T14:42:52.586Z,0.70
2022-09-23T14:45:26.446Z,0.90
2022-09-23T14:48:03.175Z,6.20
2022-09-23T14:50:40.064Z,2.90
2022-09-23T14:53:36.515Z,1.10
2022-09-23T14:56:24.120Z,1.00
2022-09-23T14:58:58.496Z,0.90
2022-09-23T15:01:36.725Z,0.80
2022-09-23T15:04:29.616Z,2.40
2022-09-23T15:07:03.532Z,3.10
2022-09-23T15:09:37.155Z,1.70
2022-09-23T15:12:13.313Z,1.30
2022-09-23T15:14:50.526Z,2.10
2022-09-23T15:17:32.673Z,1.90
2022-09-23T15:20:08.217Z,1.40
2022-09-23T15:22:48.543Z,1.30
2022-09-23T15:25:22.703Z,1.40
2022-09-23T15:28:02.504Z,1.40
2022-09-23T15:30:36.229Z,1.50
2022-09-23T15:33:09.082Z,1.80
2022-09-23T15:35:44.403Z,2.40
2022-09-23T15:38:17.701Z,1.90
2022-09-23T15:40:49.462Z,1.40
2022-09-23T15:43:23.371Z,1.50
2022-09-23T15:45:57.202Z,1.80
2022-09-23T15:48:32.655Z,1.80
2022-09-23T15:51:08.435Z,1.60
2022-09-23T15:53:39.624Z,1.90
2022-09-23T15:56:10.520Z,2.30
2022-09-23T15:58:41.683Z,2.20
2022-09-23T16:01:18.966Z,1.10
2022-09-23T16:03:50.107Z,1.30
2022-09-23T16:06:21.315Z,1.50
2022-09-23T16:08:52.425Z,1.20
2022-09-23T16:11:26.475Z,2.00
2022-09-23T16:13:57.579Z,2.40
2022-09-23T16:16:29.095Z,1.90
2022-09-23T16:19:00.169Z,2.20
2022-09-23T16:21:31.335Z,1.70
2022-09-23T16:24:02.619Z,2.00
2022-09-23T16:26:37.113Z,1.10
2022-09-23T16:29:09.516Z,1.00
2022-09-23T16:31:40.768Z,1.00
2022-09-23T16:34:11.645Z,1.10
2022-09-23T16:36:44.571Z,1.00
2022-09-23T16:39:16.192Z,1.00
2022-09-23T16:41:47.849Z,1.20
2022-09-23T16:44:18.643Z,1.10
2022-09-23T16:46:49.520Z,0.90
2022-09-23T16:49:21.081Z,1.20
2022-09-23T16:51:52.015Z,2.10
2022-09-23T16:54:23.965Z,1.80
2022-09-23T16:56:55.200Z,1.30
2022-09-23T16:59:46.992Z,1.30
2022-09-23T17:02:35.586Z,1.40
2022-09-23T17:05:07.419Z,1.40
2022-09-23T17:07:38.598Z,1.10
2022-09-23T17:10:11.840Z,1.20
2022-09-23T17:12:43.652Z,1.30
2022-09-23T17:15:15.165Z,1.30
2022-09-23T17:17:46.114Z,1.40
2022-09-23T17:20:17.308Z,1.60
2022-09-23T17:22:48.390Z,1.60
2022-09-23T17:25:19.598Z,1.60
2022-09-23T17:27:52.119Z,1.70
2022-09-23T17:30:23.222Z,1.80
2022-09-23T17:32:54.801Z,2.10
2022-09-23T17:35:25.775Z,1.70
2022-09-23T17:37:56.462Z,2.00
2022-09-23T17:40:27.531Z,1.50
2022-09-23T17:42:59.808Z,2.20
2022-09-23T17:45:30.859Z,1.90
2022-09-23T17:48:01.782Z,2.10
2022-09-23T17:50:32.813Z,2.10
2022-09-23T17:53:05.216Z,2.00
2022-09-23T17:55:36.187Z,2.30
2022-09-23T17:58:07.063Z,2.60
2022-09-23T18:00:38.241Z,2.30
2022-09-23T18:03:09.626Z,2.50
2022-09-23T18:08:10.075Z,2.70
2022-09-23T18:10:40.903Z,3.10
2022-09-23T18:15:41.944Z,3.90
2022-09-23T18:18:12.906Z,3.50
2022-09-23T18:20:43.644Z,4.10
2022-09-23T18:23:14.543Z,5.90
2022-09-23T18:25:45.657Z,6.10
2022-09-23T18:28:16.970Z,5.30
2022-09-23T18:33:25.915Z,4.60
2022-09-23T18:35:56.734Z,4.50
2022-09-23T18:38:27.897Z,4.60
2022-09-23T18:43:37.429Z,3.90
2022-09-23T18:46:14.133Z,3.90
2022-09-23T18:49:03.320Z,3.70
2022-09-23T18:51:35.024Z,4.20
2022-09-23T18:54:08.576Z,4.50
2022-09-23T18:56:43.834Z,4.50
2022-09-23T18:59:18.088Z,4.90
2022-09-23T19:01:50.848Z,7.70
2022-09-23T19:04:23.733Z,4.40
2022-09-23T19:06:56.550Z,4.50
2022-09-23T19:09:28.013Z,4.30
2022-09-23T19:11:59.211Z,4.90
2022-09-23T19:14:30.047Z,4.50
2022-09-23T19:19:30.439Z,4.70
2022-09-23T19:22:01.578Z,10.30
2022-09-23T19:24:32.722Z,7.80
2022-09-23T19:27:04.369Z,7.90
2022-09-23T19:29:35.393Z,6.50
2022-09-23T19:32:06.514Z,6.70
2022-09-23T19:34:37.765Z,6.10
2022-09-23T19:37:09.318Z,5.20
2022-09-23T19:39:40.937Z,5.40
2022-09-23T19:42:12.229Z,6.10
2022-09-23T19:44:43.266Z,5.70
2022-09-23T19:49:47.466Z,4.30
2022-09-23T19:52:18.530Z,5.50
2022-09-23T19:54:49.756Z,6.20
2022-09-23T19:57:20.673Z,5.40
2022-09-23T19:59:51.551Z,6.50
2022-09-23T20:02:22.758Z,5.40
2022-09-23T20:04:54.003Z,6.10
2022-09-23T20:07:24.951Z,6.10
2022-09-23T20:12:27.437Z,6.30
2022-09-23T20:15:00.129Z,5.90
2022-09-23T20:17:32.590Z,5.80
2022-09-23T20:20:03.794Z,5.80
2022-09-23T20:22:35.228Z,6.40
2022-09-23T20:25:12.988Z,5.60
2022-09-23T20:27:43.934Z,5.20
2022-09-23T20:30:15.908Z,6.10
2022-09-23T20:32:47.236Z,7.20
2022-09-23T20:35:18.486Z,5.90
2022-09-23T20:40:19.619Z,5.90
2022-09-23T20:42:51.484Z,6.10
2022-09-23T20:45:22.696Z,6.00
2022-09-23T20:47:53.417Z,6.50
2022-09-23T20:50:24.315Z,5.90
2022-09-23T20:52:56.515Z,5.80
2022-09-23T20:55:27.347Z,5.80
2022-09-23T20:57:58.125Z,5.80
2022-09-23T21:00:29.008Z,8.20
2022-09-23T21:03:00.084Z,5.90
2022-09-23T21:05:31.360Z,5.80
2022-09-23T21:10:36.763Z,6.90
2022-09-23T21:13:07.904Z,9.10
2022-09-23T21:15:39.022Z,8.40
2022-09-23T21:18:14.567Z,9.10
2022-09-23T21:20:54.176Z,8.30
2022-09-23T21:23:29.309Z,6.40
2022-09-23T21:26:05.066Z,6.30
2022-09-23T21:28:37.653Z,6.60
2022-09-23T21:31:10.737Z,7.50
2022-09-23T21:33:42.003Z,7.00
2022-09-23T21:36:13.391Z,7.70
2022-09-23T21:38:45.080Z,6.90
2022-09-23T21:41:16.193Z,6.50
2022-09-23T21:43:48.362Z,7.80
2022-09-23T21:46:21.188Z,8.10
2022-09-23T21:48:53.993Z,8.00
2022-09-23T21:51:26.934Z,8.20
2022-09-23T21:53:59.183Z,7.10
2022-09-23T21:56:32.986Z,6.10
2022-09-23T21:59:04.029Z,10.90
2022-09-23T22:04:10.343Z,10.10
2022-09-23T22:06:42.024Z,10.60
2022-09-23T22:09:17.010Z,9.10
2022-09-23T22:12:09.614Z,10.70
2022-09-23T22:14:41.073Z,10.90
2022-09-23T22:17:14.808Z,10.50
2022-09-23T22:19:47.174Z,10.40
2022-09-23T22:22:19.369Z,9.70
2022-09-23T22:24:51.967Z,9.50
2022-09-23T22:27:24.648Z,10.10
2022-09-23T22:30:24.360Z,9.70
2022-09-23T22:32:55.413Z,9.60
2022-09-23T22:37:57.227Z,10.30
2022-09-23T22:40:28.354Z,11.10
2022-09-23T22:42:59.595Z,9.90
2022-09-23T22:45:30.464Z,9.30
2022-09-23T22:48:01.714Z,9.00
2022-09-23T22:50:32.624Z,9.30
2022-09-23T22:53:04.143Z,9.30
2022-09-23T22:55:34.884Z,9.70
2022-09-23T22:58:21.556Z,9.10
2022-09-23T23:00:59.470Z,9.00
2022-09-23T23:03:33.427Z,9.30
2022-09-23T23:06:05.422Z,8.10
2022-09-23T23:08:37.149Z,8.70
2022-09-23T23:11:11.099Z,8.80
2022-09-23T23:13:42.626Z,8.40
2022-09-23T23:16:14.611Z,8.80
2022-09-23T23:18:47.764Z,8.80
2022-09-23T23:21:20.919Z,8.20
2022-09-23T23:23:53.660Z,7.50
2022-09-23T23:26:27.685Z,9.00
2022-09-23T23:28:59.025Z,8.20
2022-09-23T23:31:32.246Z,9.00
2022-09-23T23:34:03.509Z,8.30
2022-09-23T23:36:34.412Z,8.40
2022-09-23T23:39:05.523Z,8.50
2022-09-23T23:44:07.977Z,7.00
2022-09-23T23:46:40.060Z,8.20
2022-09-23T23:49:11.265Z,7.40
2022-09-23T23:54:15.316Z,6.40
2022-09-23T23:56:46.645Z,7.10
2022-09-23T23:59:20.217Z,6.70
